sensor_id;sensor_type;location;lat;lon;timestamp;P1;durP1;ratioP1;P2;durP2;ratioP2
48813;SDS011;34634;44.108;3.074;2023-02-25T00:01:18;9.75;;;6.53;;
48813;SDS011;34634;44.108;3.074;2023-02-25T00:03:44;9.43;;;6.43;;
48813;SDS011;34634;44.108;3.074;2023-02-25T00:06:11;8.23;;;5.88;;
48813;SDS011;34634;44.108;3.074;2023-02-25T00:08:38;9.70;;;6.13;;
48813;SDS011;34634;44.108;3.074;2023-02-25T00:11:06;13.75;;;8.05;;
48813;SDS011;34634;44.108;3.074;2023-02-25T00:13:33;15.10;;;8.18;;
48813;SDS011;34634;44.108;3.074;2023-02-25T00:16:03;15.85;;;7.88;;
48813;SDS011;34634;44.108;3.074;2023-02-25T00:18:29;12.45;;;6.65;;
48813;SDS011;34634;44.108;3.074;2023-02-25T00:20:56;8.00;;;5.43;;
48813;SDS011;34634;44.108;3.074;2023-02-25T00:23:23;8.90;;;5.88;;
48813;SDS011;34634;44.108;3.074;2023-02-25T00:25:50;7.88;;;5.15;;
48813;SDS011;34634;44.108;3.074;2023-02-25T00:28:22;10.23;;;6.22;;
48813;SDS011;34634;44.108;3.074;2023-02-25T00:30:49;10.35;;;6.75;;
48813;SDS011;34634;44.108;3.074;2023-02-25T00:33:15;10.15;;;6.75;;
48813;SDS011;34634;44.108;3.074;2023-02-25T00:35:41;14.38;;;7.38;;
48813;SDS011;34634;44.108;3.074;2023-02-25T00:38:07;13.80;;;9.13;;
48813;SDS011;34634;44.108;3.074;2023-02-25T00:40:37;15.23;;;9.40;;
48813;SDS011;34634;44.108;3.074;2023-02-25T00:43:04;14.23;;;8.88;;
48813;SDS011;34634;44.108;3.074;2023-02-25T00:45:31;15.25;;;8.70;;
48813;SDS011;34634;44.108;3.074;2023-02-25T00:47:57;14.65;;;7.95;;
48813;SDS011;34634;44.108;3.074;2023-02-25T00:50:24;10.60;;;7.78;;
48813;SDS011;34634;44.108;3.074;2023-02-25T00:52:50;9.23;;;6.13;;
48813;SDS011;34634;44.108;3.074;2023-02-25T00:55:16;9.18;;;5.95;;
48813;SDS011;34634;44.108;3.074;2023-02-25T00:57:43;9.35;;;5.68;;
48813;SDS011;34634;44.108;3.074;2023-02-25T01:00:09;6.88;;;4.43;;
48813;SDS011;34634;44.108;3.074;2023-02-25T01:05:07;8.02;;;4.72;;
48813;SDS011;34634;44.108;3.074;2023-02-25T01:07:34;8.88;;;6.13;;
48813;SDS011;34634;44.108;3.074;2023-02-25T01:10:02;11.88;;;5.90;;
48813;SDS011;34634;44.108;3.074;2023-02-25T01:12:29;10.32;;;4.93;;
48813;SDS011;34634;44.108;3.074;2023-02-25T01:14:55;9.23;;;5.82;;
48813;SDS011;34634;44.108;3.074;2023-02-25T01:17:22;9.93;;;5.78;;
48813;SDS011;34634;44.108;3.074;2023-02-25T01:19:48;10.32;;;6.63;;
48813;SDS011;34634;44.108;3.074;2023-02-25T01:22:14;8.00;;;5.10;;
48813;SDS011;34634;44.108;3.074;2023-02-25T01:24:41;7.10;;;4.82;;
48813;SDS011;34634;44.108;3.074;2023-02-25T01:27:07;7.10;;;5.20;;
48813;SDS011;34634;44.108;3.074;2023-02-25T01:29:35;12.13;;;6.18;;
48813;SDS011;34634;44.108;3.074;2023-02-25T01:32:04;11.52;;;6.85;;
48813;SDS011;34634;44.108;3.074;2023-02-25T01:34:31;10.05;;;6.63;;
48813;SDS011;34634;44.108;3.074;2023-02-25T01:36:57;11.27;;;6.75;;
48813;SDS011;34634;44.108;3.074;2023-02-25T01:39:24;14.63;;;7.72;;
48813;SDS011;34634;44.108;3.074;2023-02-25T01:41:51;10.77;;;7.18;;
48813;SDS011;34634;44.108;3.074;2023-02-25T01:44:22;14.98;;;7.75;;
48813;SDS011;34634;44.108;3.074;2023-02-25T01:46:50;11.07;;;6.90;;
48813;SDS011;34634;44.108;3.074;2023-02-25T01:49:36;9.95;;;6.72;;
48813;SDS011;34634;44.108;3.074;2023-02-25T01:52:09;10.13;;;6.28;;
48813;SDS011;34634;44.108;3.074;2023-02-25T01:54:36;10.45;;;6.38;;
48813;SDS011;34634;44.108;3.074;2023-02-25T01:57:05;9.45;;;6.65;;
48813;SDS011;34634;44.108;3.074;2023-02-25T01:59:33;14.57;;;7.18;;
48813;SDS011;34634;44.108;3.074;2023-02-25T02:02:00;9.48;;;6.43;;
48813;SDS011;34634;44.108;3.074;2023-02-25T02:04:26;8.77;;;5.53;;
48813;SDS011;34634;44.108;3.074;2023-02-25T02:06:53;8.88;;;6.28;;
48813;SDS011;34634;44.108;3.074;2023-02-25T02:09:21;8.52;;;5.68;;
48813;SDS011;34634;44.108;3.074;2023-02-25T02:11:48;7.93;;;5.50;;
48813;SDS011;34634;44.108;3.074;2023-02-25T02:14:16;7.38;;;5.28;;
48813;SDS011;34634;44.108;3.074;2023-02-25T02:20:18;7.00;;;5.00;;
48813;SDS011;34634;44.108;3.074;2023-02-25T02:24:54;6.82;;;4.93;;
48813;SDS011;34634;44.108;3.074;2023-02-25T02:35:07;8.15;;;5.13;;
48813;SDS011;34634;44.108;3.074;2023-02-25T02:37:49;7.63;;;4.60;;
48813;SDS011;34634;44.108;3.074;2023-02-25T02:40:23;7.07;;;4.63;;
48813;SDS011;34634;44.108;3.074;2023-02-25T02:48:10;10.32;;;5.95;;
48813;SDS011;34634;44.108;3.074;2023-02-25T02:50:46;8.10;;;5.63;;
48813;SDS011;34634;44.108;3.074;2023-02-25T02:53:16;8.98;;;6.18;;
48813;SDS011;34634;44.108;3.074;2023-02-25T02:55:45;9.27;;;6.55;;
48813;SDS011;34634;44.108;3.074;2023-02-25T03:00:41;12.70;;;7.10;;
48813;SDS011;34634;44.108;3.074;2023-02-25T03:03:13;9.20;;;6.28;;
48813;SDS011;34634;44.108;3.074;2023-02-25T03:05:40;9.10;;;5.68;;
48813;SDS011;34634;44.108;3.074;2023-02-25T03:08:15;11.45;;;6.05;;
48813;SDS011;34634;44.108;3.074;2023-02-25T03:10:43;7.43;;;5.03;;
48813;SDS011;34634;44.108;3.074;2023-02-25T03:13:09;9.38;;;5.25;;
48813;SDS011;34634;44.108;3.074;2023-02-25T03:15:36;10.82;;;5.15;;
48813;SDS011;34634;44.108;3.074;2023-02-25T03:18:13;7.75;;;5.00;;
48813;SDS011;34634;44.108;3.074;2023-02-25T03:20:41;11.40;;;6.05;;
48813;SDS011;34634;44.108;3.074;2023-02-25T03:23:09;7.88;;;5.00;;
48813;SDS011;34634;44.108;3.074;2023-02-25T03:25:40;7.60;;;4.53;;
48813;SDS011;34634;44.108;3.074;2023-02-25T03:28:21;6.63;;;4.97;;
48813;SDS011;34634;44.108;3.074;2023-02-25T03:31:04;8.32;;;4.80;;
48813;SDS011;34634;44.108;3.074;2023-02-25T03:33:46;9.55;;;5.75;;
48813;SDS011;34634;44.108;3.074;2023-02-25T03:37:00;8.05;;;5.95;;
48813;SDS011;34634;44.108;3.074;2023-02-25T03:39:07;9.35;;;6.35;;
48813;SDS011;34634;44.108;3.074;2023-02-25T03:41:35;14.35;;;8.43;;
48813;SDS011;34634;44.108;3.074;2023-02-25T03:44:03;16.17;;;9.65;;
48813;SDS011;34634;44.108;3.074;2023-02-25T03:46:31;9.55;;;7.20;;
48813;SDS011;34634;44.108;3.074;2023-02-25T03:48:58;6.55;;;4.70;;
48813;SDS011;34634;44.108;3.074;2023-02-25T03:51:28;7.82;;;5.10;;
48813;SDS011;34634;44.108;3.074;2023-02-25T03:53:55;6.28;;;4.85;;
48813;SDS011;34634;44.108;3.074;2023-02-25T03:56:22;9.10;;;6.18;;
48813;SDS011;34634;44.108;3.074;2023-02-25T03:58:48;6.82;;;5.30;;
48813;SDS011;34634;44.108;3.074;2023-02-25T04:01:22;12.38;;;5.50;;
48813;SDS011;34634;44.108;3.074;2023-02-25T04:03:49;8.50;;;5.30;;
48813;SDS011;34634;44.108;3.074;2023-02-25T04:06:19;6.90;;;4.95;;
48813;SDS011;34634;44.108;3.074;2023-02-25T04:08:45;6.45;;;5.05;;
48813;SDS011;34634;44.108;3.074;2023-02-25T04:11:12;9.75;;;5.88;;
48813;SDS011;34634;44.108;3.074;2023-02-25T04:13:38;8.05;;;5.30;;
48813;SDS011;34634;44.108;3.074;2023-02-25T04:16:04;8.35;;;5.10;;
48813;SDS011;34634;44.108;3.074;2023-02-25T04:18:32;8.15;;;5.72;;
48813;SDS011;34634;44.108;3.074;2023-02-25T04:20:59;8.55;;;5.75;;
48813;SDS011;34634;44.108;3.074;2023-02-25T04:23:25;10.32;;;6.95;;
48813;SDS011;34634;44.108;3.074;2023-02-25T04:25:51;13.82;;;8.25;;
48813;SDS011;34634;44.108;3.074;2023-02-25T04:28:18;7.97;;;5.53;;
48813;SDS011;34634;44.108;3.074;2023-02-25T04:30:44;12.43;;;6.30;;
48813;SDS011;34634;44.108;3.074;2023-02-25T04:33:10;7.15;;;4.93;;
48813;SDS011;34634;44.108;3.074;2023-02-25T04:35:37;7.88;;;5.55;;
48813;SDS011;34634;44.108;3.074;2023-02-25T04:38:03;24.00;;;12.75;;
48813;SDS011;34634;44.108;3.074;2023-02-25T04:40:30;17.35;;;8.77;;
48813;SDS011;34634;44.108;3.074;2023-02-25T04:42:56;11.15;;;5.50;;
48813;SDS011;34634;44.108;3.074;2023-02-25T04:45:22;12.38;;;7.15;;
48813;SDS011;34634;44.108;3.074;2023-02-25T04:47:53;7.10;;;5.10;;
48813;SDS011;34634;44.108;3.074;2023-02-25T04:52:47;10.18;;;6.35;;
48813;SDS011;34634;44.108;3.074;2023-02-25T04:55:13;11.65;;;6.95;;
48813;SDS011;34634;44.108;3.074;2023-02-25T04:57:39;13.27;;;7.50;;
48813;SDS011;34634;44.108;3.074;2023-02-25T05:00:08;7.50;;;4.90;;
48813;SDS011;34634;44.108;3.074;2023-02-25T05:02:34;4.93;;;3.65;;
48813;SDS011;34634;44.108;3.074;2023-02-25T05:05:01;7.22;;;4.75;;
48813;SDS011;34634;44.108;3.074;2023-02-25T05:07:27;6.30;;;4.10;;
48813;SDS011;34634;44.108;3.074;2023-02-25T05:09:53;11.80;;;7.30;;
48813;SDS011;34634;44.108;3.074;2023-02-25T05:12:20;12.20;;;7.13;;
48813;SDS011;34634;44.108;3.074;2023-02-25T05:14:46;6.53;;;4.65;;
48813;SDS011;34634;44.108;3.074;2023-02-25T05:17:12;4.75;;;3.70;;
48813;SDS011;34634;44.108;3.074;2023-02-25T05:19:40;4.72;;;3.50;;
48813;SDS011;34634;44.108;3.074;2023-02-25T05:22:07;6.25;;;4.20;;
48813;SDS011;34634;44.108;3.074;2023-02-25T05:24:34;7.57;;;4.78;;
48813;SDS011;34634;44.108;3.074;2023-02-25T05:27:01;7.95;;;5.03;;
48813;SDS011;34634;44.108;3.074;2023-02-25T05:29:34;9.77;;;6.20;;
48813;SDS011;34634;44.108;3.074;2023-02-25T05:32:01;5.80;;;3.65;;
48813;SDS011;34634;44.108;3.074;2023-02-25T05:34:27;7.22;;;4.80;;
48813;SDS011;34634;44.108;3.074;2023-02-25T05:36:53;6.30;;;4.40;;
48813;SDS011;34634;44.108;3.074;2023-02-25T05:39:19;7.53;;;3.78;;
48813;SDS011;34634;44.108;3.074;2023-02-25T05:41:46;6.20;;;4.82;;
48813;SDS011;34634;44.108;3.074;2023-02-25T05:44:13;6.32;;;4.63;;
48813;SDS011;34634;44.108;3.074;2023-02-25T05:46:39;8.32;;;4.22;;
48813;SDS011;34634;44.108;3.074;2023-02-25T05:49:05;6.90;;;5.07;;
48813;SDS011;34634;44.108;3.074;2023-02-25T05:51:32;6.43;;;4.20;;
48813;SDS011;34634;44.108;3.074;2023-02-25T05:53:58;6.20;;;4.63;;
48813;SDS011;34634;44.108;3.074;2023-02-25T05:56:25;9.45;;;6.07;;
48813;SDS011;34634;44.108;3.074;2023-02-25T05:58:51;5.50;;;3.72;;
48813;SDS011;34634;44.108;3.074;2023-02-25T06:01:19;7.28;;;5.20;;
48813;SDS011;34634;44.108;3.074;2023-02-25T06:03:47;6.40;;;4.93;;
48813;SDS011;34634;44.108;3.074;2023-02-25T06:06:14;6.45;;;3.92;;
48813;SDS011;34634;44.108;3.074;2023-02-25T06:08:42;4.68;;;3.67;;
48813;SDS011;34634;44.108;3.074;2023-02-25T06:11:09;6.28;;;4.80;;
48813;SDS011;34634;44.108;3.074;2023-02-25T06:13:38;7.93;;;4.20;;
48813;SDS011;34634;44.108;3.074;2023-02-25T06:16:06;7.07;;;4.32;;
48813;SDS011;34634;44.108;3.074;2023-02-25T06:18:32;5.40;;;4.22;;
48813;SDS011;34634;44.108;3.074;2023-02-25T06:21:02;7.50;;;4.70;;
48813;SDS011;34634;44.108;3.074;2023-02-25T06:23:30;5.88;;;4.07;;
48813;SDS011;34634;44.108;3.074;2023-02-25T06:25:56;6.07;;;4.03;;
48813;SDS011;34634;44.108;3.074;2023-02-25T06:28:23;9.00;;;4.38;;
48813;SDS011;34634;44.108;3.074;2023-02-25T06:30:49;5.47;;;4.18;;
48813;SDS011;34634;44.108;3.074;2023-02-25T06:33:15;4.50;;;3.80;;
48813;SDS011;34634;44.108;3.074;2023-02-25T06:35:42;6.72;;;4.43;;
48813;SDS011;34634;44.108;3.074;2023-02-25T06:38:09;5.72;;;4.18;;
48813;SDS011;34634;44.108;3.074;2023-02-25T06:40:36;8.77;;;4.93;;
48813;SDS011;34634;44.108;3.074;2023-02-25T06:43:02;9.13;;;5.00;;
48813;SDS011;34634;44.108;3.074;2023-02-25T06:45:29;7.78;;;5.22;;
48813;SDS011;34634;44.108;3.074;2023-02-25T06:47:55;7.88;;;5.28;;
48813;SDS011;34634;44.108;3.074;2023-02-25T06:50:22;9.40;;;5.18;;
48813;SDS011;34634;44.108;3.074;2023-02-25T06:52:49;7.85;;;5.35;;
48813;SDS011;34634;44.108;3.074;2023-02-25T06:55:15;11.05;;;6.57;;
48813;SDS011;34634;44.108;3.074;2023-02-25T06:57:41;8.63;;;5.60;;
48813;SDS011;34634;44.108;3.074;2023-02-25T07:00:08;7.05;;;4.82;;
48813;SDS011;34634;44.108;3.074;2023-02-25T07:02:34;7.63;;;4.68;;
48813;SDS011;34634;44.108;3.074;2023-02-25T07:05:01;7.53;;;5.15;;
48813;SDS011;34634;44.108;3.074;2023-02-25T07:07:29;10.45;;;5.75;;
48813;SDS011;34634;44.108;3.074;2023-02-25T07:09:56;11.90;;;5.57;;
48813;SDS011;34634;44.108;3.074;2023-02-25T07:12:22;8.65;;;5.40;;
48813;SDS011;34634;44.108;3.074;2023-02-25T07:14:48;7.68;;;4.38;;
48813;SDS011;34634;44.108;3.074;2023-02-25T07:17:15;7.97;;;4.82;;
48813;SDS011;34634;44.108;3.074;2023-02-25T07:19:41;7.38;;;4.65;;
48813;SDS011;34634;44.108;3.074;2023-02-25T07:22:10;7.90;;;5.53;;
48813;SDS011;34634;44.108;3.074;2023-02-25T07:24:38;6.85;;;5.28;;
48813;SDS011;34634;44.108;3.074;2023-02-25T07:27:04;9.00;;;5.38;;
48813;SDS011;34634;44.108;3.074;2023-02-25T07:29:30;12.63;;;7.20;;
48813;SDS011;34634;44.108;3.074;2023-02-25T07:31:57;19.83;;;10.45;;
48813;SDS011;34634;44.108;3.074;2023-02-25T07:34:24;20.17;;;10.60;;
48813;SDS011;34634;44.108;3.074;2023-02-25T07:36:50;11.35;;;5.57;;
48813;SDS011;34634;44.108;3.074;2023-02-25T07:39:17;22.52;;;10.32;;
48813;SDS011;34634;44.108;3.074;2023-02-25T07:41:43;9.30;;;6.15;;
48813;SDS011;34634;44.108;3.074;2023-02-25T07:44:09;9.77;;;6.30;;
48813;SDS011;34634;44.108;3.074;2023-02-25T07:46:36;15.13;;;7.88;;
48813;SDS011;34634;44.108;3.074;2023-02-25T07:49:03;10.00;;;5.18;;
48813;SDS011;34634;44.108;3.074;2023-02-25T07:51:29;14.32;;;8.68;;
48813;SDS011;34634;44.108;3.074;2023-02-25T07:53:56;14.75;;;7.63;;
48813;SDS011;34634;44.108;3.074;2023-02-25T07:56:23;18.13;;;8.60;;
48813;SDS011;34634;44.108;3.074;2023-02-25T07:58:50;27.83;;;12.45;;
48813;SDS011;34634;44.108;3.074;2023-02-25T08:01:27;22.67;;;10.93;;
48813;SDS011;34634;44.108;3.074;2023-02-25T08:03:56;17.77;;;8.93;;
48813;SDS011;34634;44.108;3.074;2023-02-25T08:06:22;18.50;;;9.52;;
48813;SDS011;34634;44.108;3.074;2023-02-25T08:08:49;17.83;;;9.68;;
48813;SDS011;34634;44.108;3.074;2023-02-25T08:11:16;40.78;;;17.20;;
48813;SDS011;34634;44.108;3.074;2023-02-25T08:13:43;16.92;;;7.53;;
48813;SDS011;34634;44.108;3.074;2023-02-25T08:16:11;18.20;;;9.80;;
48813;SDS011;34634;44.108;3.074;2023-02-25T08:18:38;34.40;;;15.75;;
48813;SDS011;34634;44.108;3.074;2023-02-25T08:21:08;36.10;;;15.02;;
48813;SDS011;34634;44.108;3.074;2023-02-25T08:23:34;38.38;;;20.52;;
48813;SDS011;34634;44.108;3.074;2023-02-25T08:26:01;18.05;;;8.77;;
48813;SDS011;34634;44.108;3.074;2023-02-25T08:28:28;22.35;;;11.48;;
48813;SDS011;34634;44.108;3.074;2023-02-25T08:30:56;12.68;;;6.30;;
48813;SDS011;34634;44.108;3.074;2023-02-25T08:33:22;17.75;;;8.95;;
48813;SDS011;34634;44.108;3.074;2023-02-25T08:35:49;16.13;;;7.28;;
48813;SDS011;34634;44.108;3.074;2023-02-25T08:38:16;14.02;;;8.73;;
48813;SDS011;34634;44.108;3.074;2023-02-25T08:40:42;15.02;;;9.07;;
48813;SDS011;34634;44.108;3.074;2023-02-25T08:43:09;37.70;;;18.27;;
48813;SDS011;34634;44.108;3.074;2023-02-25T08:45:36;14.77;;;8.18;;
48813;SDS011;34634;44.108;3.074;2023-02-25T08:48:02;15.88;;;7.95;;
48813;SDS011;34634;44.108;3.074;2023-02-25T08:50:29;13.65;;;7.68;;
48813;SDS011;34634;44.108;3.074;2023-02-25T08:52:56;14.63;;;6.95;;
48813;SDS011;34634;44.108;3.074;2023-02-25T08:55:23;10.52;;;6.85;;
48813;SDS011;34634;44.108;3.074;2023-02-25T08:57:49;10.70;;;7.18;;
48813;SDS011;34634;44.108;3.074;2023-02-25T09:00:16;11.65;;;7.00;;
48813;SDS011;34634;44.108;3.074;2023-02-25T09:02:42;21.52;;;13.07;;
48813;SDS011;34634;44.108;3.074;2023-02-25T09:05:09;14.30;;;8.88;;
48813;SDS011;34634;44.108;3.074;2023-02-25T09:07:36;12.77;;;7.03;;
48813;SDS011;34634;44.108;3.074;2023-02-25T09:10:02;18.70;;;7.78;;
48813;SDS011;34634;44.108;3.074;2023-02-25T09:12:32;12.48;;;7.90;;
48813;SDS011;34634;44.108;3.074;2023-02-25T09:15:00;11.10;;;6.68;;
48813;SDS011;34634;44.108;3.074;2023-02-25T09:17:27;12.02;;;6.18;;
48813;SDS011;34634;44.108;3.074;2023-02-25T09:19:53;9.90;;;6.30;;
48813;SDS011;34634;44.108;3.074;2023-02-25T09:22:19;9.32;;;5.45;;
48813;SDS011;34634;44.108;3.074;2023-02-25T09:24:46;9.65;;;5.90;;
48813;SDS011;34634;44.108;3.074;2023-02-25T09:27:12;10.05;;;5.90;;
48813;SDS011;34634;44.108;3.074;2023-02-25T09:29:39;14.05;;;7.32;;
48813;SDS011;34634;44.108;3.074;2023-02-25T09:32:06;10.77;;;7.07;;
48813;SDS011;34634;44.108;3.074;2023-02-25T09:34:33;13.07;;;7.35;;
48813;SDS011;34634;44.108;3.074;2023-02-25T09:36:59;8.13;;;5.38;;
48813;SDS011;34634;44.108;3.074;2023-02-25T09:39:26;9.57;;;5.35;;
48813;SDS011;34634;44.108;3.074;2023-02-25T09:44:38;11.52;;;6.40;;
48813;SDS011;34634;44.108;3.074;2023-02-25T09:47:16;11.13;;;5.28;;
48813;SDS011;34634;44.108;3.074;2023-02-25T09:52:19;8.50;;;5.63;;
48813;SDS011;34634;44.108;3.074;2023-02-25T09:54:52;8.65;;;6.45;;
48813;SDS011;34634;44.108;3.074;2023-02-25T09:57:20;8.63;;;5.88;;
48813;SDS011;34634;44.108;3.074;2023-02-25T09:59:49;7.35;;;5.55;;
48813;SDS011;34634;44.108;3.074;2023-02-25T10:02:24;9.45;;;5.68;;
48813;SDS011;34634;44.108;3.074;2023-02-25T10:07:32;9.82;;;5.88;;
48813;SDS011;34634;44.108;3.074;2023-02-25T10:10:08;10.00;;;5.80;;
48813;SDS011;34634;44.108;3.074;2023-02-25T10:12:41;9.35;;;5.57;;
48813;SDS011;34634;44.108;3.074;2023-02-25T10:18:03;8.13;;;5.35;;
48813;SDS011;34634;44.108;3.074;2023-02-25T10:25:36;11.48;;;5.30;;
48813;SDS011;34634;44.108;3.074;2023-02-25T10:28:05;10.45;;;5.25;;
48813;SDS011;34634;44.108;3.074;2023-02-25T10:30:49;7.97;;;5.13;;
48813;SDS011;34634;44.108;3.074;2023-02-25T10:33:20;7.93;;;5.18;;
48813;SDS011;34634;44.108;3.074;2023-02-25T10:36:07;11.52;;;5.30;;
48813;SDS011;34634;44.108;3.074;2023-02-25T10:38:35;6.97;;;4.78;;
48813;SDS011;34634;44.108;3.074;2023-02-25T10:41:02;9.27;;;5.35;;
48813;SDS011;34634;44.108;3.074;2023-02-25T10:43:30;7.30;;;5.30;;
48813;SDS011;34634;44.108;3.074;2023-02-25T10:48:41;9.18;;;5.97;;
48813;SDS011;34634;44.108;3.074;2023-02-25T10:51:11;7.45;;;5.70;;
48813;SDS011;34634;44.108;3.074;2023-02-25T10:53:58;10.48;;;6.57;;
48813;SDS011;34634;44.108;3.074;2023-02-25T10:56:27;10.10;;;6.57;;
48813;SDS011;34634;44.108;3.074;2023-02-25T11:01:40;12.70;;;6.97;;
48813;SDS011;34634;44.108;3.074;2023-02-25T11:04:11;12.50;;;6.93;;
48813;SDS011;34634;44.108;3.074;2023-02-25T11:06:39;11.05;;;6.75;;
48813;SDS011;34634;44.108;3.074;2023-02-25T11:11:52;10.45;;;6.47;;
48813;SDS011;34634;44.108;3.074;2023-02-25T11:14:40;8.70;;;5.70;;
48813;SDS011;34634;44.108;3.074;2023-02-25T11:19:42;8.65;;;5.43;;
48813;SDS011;34634;44.108;3.074;2023-02-25T11:22:22;10.18;;;5.93;;
48813;SDS011;34634;44.108;3.074;2023-02-25T11:24:55;7.82;;;5.32;;
48813;SDS011;34634;44.108;3.074;2023-02-25T11:27:32;10.38;;;6.03;;
48813;SDS011;34634;44.108;3.074;2023-02-25T11:30:00;9.88;;;5.85;;
48813;SDS011;34634;44.108;3.074;2023-02-25T11:32:27;11.20;;;5.85;;
48813;SDS011;34634;44.108;3.074;2023-02-25T11:34:54;9.43;;;5.70;;
48813;SDS011;34634;44.108;3.074;2023-02-25T11:37:35;9.45;;;5.80;;
48813;SDS011;34634;44.108;3.074;2023-02-25T11:40:12;8.68;;;6.00;;
48813;SDS011;34634;44.108;3.074;2023-02-25T11:42:44;13.00;;;6.45;;
48813;SDS011;34634;44.108;3.074;2023-02-25T11:45:24;11.73;;;5.80;;
48813;SDS011;34634;44.108;3.074;2023-02-25T11:47:52;14.35;;;6.13;;
48813;SDS011;34634;44.108;3.074;2023-02-25T11:53:06;10.38;;;5.75;;
48813;SDS011;34634;44.108;3.074;2023-02-25T11:55:48;17.10;;;6.75;;
48813;SDS011;34634;44.108;3.074;2023-02-25T11:58:32;9.52;;;5.43;;
48813;SDS011;34634;44.108;3.074;2023-02-25T12:01:13;14.07;;;6.47;;
48813;SDS011;34634;44.108;3.074;2023-02-25T12:32:36;11.50;;;5.07;;
48813;SDS011;34634;44.108;3.074;2023-02-25T12:58:42;6.63;;;4.15;;
48813;SDS011;34634;44.108;3.074;2023-02-25T13:01:11;6.40;;;4.05;;
48813;SDS011;34634;44.108;3.074;2023-02-25T13:09:25;9.38;;;3.85;;
48813;SDS011;34634;44.108;3.074;2023-02-25T13:12:17;6.93;;;4.18;;
48813;SDS011;34634;44.108;3.074;2023-02-25T13:22:42;5.03;;;3.40;;
48813;SDS011;34634;44.108;3.074;2023-02-25T13:27:55;9.57;;;3.95;;
48813;SDS011;34634;44.108;3.074;2023-02-25T13:35:31;12.25;;;3.67;;
48813;SDS011;34634;44.108;3.074;2023-02-25T13:38:10;7.22;;;3.22;;
48813;SDS011;34634;44.108;3.074;2023-02-25T13:43:12;7.55;;;3.33;;
48813;SDS011;34634;44.108;3.074;2023-02-25T13:45:51;8.37;;;3.47;;
48813;SDS011;34634;44.108;3.074;2023-02-25T13:56:09;9.52;;;3.95;;
48813;SDS011;34634;44.108;3.074;2023-02-25T13:59:24;10.70;;;3.78;;
48813;SDS011;34634;44.108;3.074;2023-02-25T14:09:16;7.47;;;3.55;;
48813;SDS011;34634;44.108;3.074;2023-02-25T14:14:43;10.85;;;3.55;;
48813;SDS011;34634;44.108;3.074;2023-02-25T14:20:09;11.13;;;3.63;;
48813;SDS011;34634;44.108;3.074;2023-02-25T14:30:21;10.05;;;3.60;;
48813;SDS011;34634;44.108;3.074;2023-02-25T14:32:55;9.50;;;2.90;;
48813;SDS011;34634;44.108;3.074;2023-02-25T14:40:37;6.88;;;2.88;;
48813;SDS011;34634;44.108;3.074;2023-02-25T14:45:44;10.23;;;4.05;;
48813;SDS011;34634;44.108;3.074;2023-02-25T14:48:34;7.78;;;2.42;;
48813;SDS011;34634;44.108;3.074;2023-02-25T15:11:17;7.20;;;3.05;;
48813;SDS011;34634;44.108;3.074;2023-02-25T15:19:34;7.25;;;2.72;;
48813;SDS011;34634;44.108;3.074;2023-02-25T15:22:18;7.68;;;2.85;;
48813;SDS011;34634;44.108;3.074;2023-02-25T15:24:45;11.02;;;2.85;;
48813;SDS011;34634;44.108;3.074;2023-02-25T15:29:58;9.25;;;2.90;;
48813;SDS011;34634;44.108;3.074;2023-02-25T15:32:28;7.10;;;2.10;;
48813;SDS011;34634;44.108;3.074;2023-02-25T15:42:44;6.07;;;1.98;;
48813;SDS011;34634;44.108;3.074;2023-02-25T15:47:50;4.10;;;1.85;;
48813;SDS011;34634;44.108;3.074;2023-02-25T15:56:43;3.72;;;1.85;;
48813;SDS011;34634;44.108;3.074;2023-02-25T16:00:59;8.02;;;2.55;;
48813;SDS011;34634;44.108;3.074;2023-02-25T16:05:52;3.78;;;1.90;;
48813;SDS011;34634;44.108;3.074;2023-02-25T16:08:22;6.13;;;2.20;;
48813;SDS011;34634;44.108;3.074;2023-02-25T16:10:50;3.85;;;2.40;;
48813;SDS011;34634;44.108;3.074;2023-02-25T16:13:28;6.93;;;2.38;;
48813;SDS011;34634;44.108;3.074;2023-02-25T16:15:55;5.80;;;2.25;;
48813;SDS011;34634;44.108;3.074;2023-02-25T16:20:58;3.58;;;1.80;;
48813;SDS011;34634;44.108;3.074;2023-02-25T16:23:25;5.25;;;2.20;;
48813;SDS011;34634;44.108;3.074;2023-02-25T16:28:38;6.07;;;2.22;;
48813;SDS011;34634;44.108;3.074;2023-02-25T16:31:13;5.93;;;2.42;;
48813;SDS011;34634;44.108;3.074;2023-02-25T16:33:52;7.00;;;2.45;;
48813;SDS011;34634;44.108;3.074;2023-02-25T16:36:24;6.00;;;2.20;;
48813;SDS011;34634;44.108;3.074;2023-02-25T16:41:51;8.48;;;2.13;;
48813;SDS011;34634;44.108;3.074;2023-02-25T16:44:19;5.93;;;2.10;;
48813;SDS011;34634;44.108;3.074;2023-02-25T16:46:47;4.57;;;2.72;;
48813;SDS011;34634;44.108;3.074;2023-02-25T16:49:18;7.97;;;2.92;;
48813;SDS011;34634;44.108;3.074;2023-02-25T16:51:45;3.03;;;2.20;;
48813;SDS011;34634;44.108;3.074;2023-02-25T16:54:16;9.10;;;2.58;;
48813;SDS011;34634;44.108;3.074;2023-02-25T16:56:44;4.47;;;2.20;;
48813;SDS011;34634;44.108;3.074;2023-02-25T16:59:15;4.72;;;2.00;;
48813;SDS011;34634;44.108;3.074;2023-02-25T17:01:55;4.60;;;1.60;;
48813;SDS011;34634;44.108;3.074;2023-02-25T17:04:32;6.40;;;2.47;;
48813;SDS011;34634;44.108;3.074;2023-02-25T17:07:13;12.02;;;6.80;;
48813;SDS011;34634;44.108;3.074;2023-02-25T17:12:29;4.97;;;2.40;;
48813;SDS011;34634;44.108;3.074;2023-02-25T17:14:58;5.05;;;2.28;;
48813;SDS011;34634;44.108;3.074;2023-02-25T17:19:56;4.57;;;2.00;;
48813;SDS011;34634;44.108;3.074;2023-02-25T17:22:23;7.55;;;2.60;;
48813;SDS011;34634;44.108;3.074;2023-02-25T17:24:51;5.85;;;2.33;;
48813;SDS011;34634;44.108;3.074;2023-02-25T17:27:18;4.90;;;2.40;;
48813;SDS011;34634;44.108;3.074;2023-02-25T17:29:44;4.82;;;2.70;;
48813;SDS011;34634;44.108;3.074;2023-02-25T17:32:12;6.47;;;2.33;;
48813;SDS011;34634;44.108;3.074;2023-02-25T17:34:43;4.22;;;2.65;;
48813;SDS011;34634;44.108;3.074;2023-02-25T17:37:10;5.30;;;2.47;;
48813;SDS011;34634;44.108;3.074;2023-02-25T17:39:38;6.93;;;3.55;;
48813;SDS011;34634;44.108;3.074;2023-02-25T17:44:50;6.85;;;2.67;;
48813;SDS011;34634;44.108;3.074;2023-02-25T17:47:20;8.65;;;3.28;;
48813;SDS011;34634;44.108;3.074;2023-02-25T17:49:48;5.05;;;3.05;;
48813;SDS011;34634;44.108;3.074;2023-02-25T17:54:44;4.93;;;2.40;;
48813;SDS011;34634;44.108;3.074;2023-02-25T17:57:15;5.63;;;2.10;;
48813;SDS011;34634;44.108;3.074;2023-02-25T17:59:46;8.80;;;2.53;;
48813;SDS011;34634;44.108;3.074;2023-02-25T18:04:40;8.13;;;2.75;;
48813;SDS011;34634;44.108;3.074;2023-02-25T18:09:45;9.43;;;2.90;;
48813;SDS011;34634;44.108;3.074;2023-02-25T18:12:21;7.20;;;3.47;;
48813;SDS011;34634;44.108;3.074;2023-02-25T18:15:31;5.05;;;2.70;;
48813;SDS011;34634;44.108;3.074;2023-02-25T18:17:38;7.72;;;2.95;;
48813;SDS011;34634;44.108;3.074;2023-02-25T18:20:06;10.20;;;3.20;;
48813;SDS011;34634;44.108;3.074;2023-02-25T18:22:38;7.15;;;2.67;;
48813;SDS011;34634;44.108;3.074;2023-02-25T18:25:07;5.85;;;2.55;;
48813;SDS011;34634;44.108;3.074;2023-02-25T18:27:52;6.40;;;3.22;;
48813;SDS011;34634;44.108;3.074;2023-02-25T18:30:20;6.63;;;3.13;;
48813;SDS011;34634;44.108;3.074;2023-02-25T18:32:47;6.18;;;3.00;;
48813;SDS011;34634;44.108;3.074;2023-02-25T18:35:13;6.65;;;2.90;;
48813;SDS011;34634;44.108;3.074;2023-02-25T18:37:40;6.00;;;3.22;;
48813;SDS011;34634;44.108;3.074;2023-02-25T18:40:09;11.75;;;4.20;;
48813;SDS011;34634;44.108;3.074;2023-02-25T18:42:36;8.55;;;3.78;;
48813;SDS011;34634;44.108;3.074;2023-02-25T18:45:12;8.50;;;3.28;;
48813;SDS011;34634;44.108;3.074;2023-02-25T18:47:39;8.98;;;2.95;;
48813;SDS011;34634;44.108;3.074;2023-02-25T18:50:05;8.10;;;2.72;;
48813;SDS011;34634;44.108;3.074;2023-02-25T18:52:32;6.38;;;3.15;;
48813;SDS011;34634;44.108;3.074;2023-02-25T18:54:58;7.38;;;2.63;;
48813;SDS011;34634;44.108;3.074;2023-02-25T18:57:25;6.28;;;2.88;;